sensor_id;sensor_type;location;lat;lon;timestamp;temperature;humidity
7846;DHT22;3968;51.424;6.788;2022-10-14T00:02:03;13.10;99.90
7846;DHT22;3968;51.424;6.788;2022-10-14T00:04:29;13.10;99.90
7846;DHT22;3968;51.424;6.788;2022-10-14T00:06:55;13.10;99.90
7846;DHT22;3968;51.424;6.788;2022-10-14T00:09:21;13.00;99.90
7846;DHT22;3968;51.424;6.788;2022-10-14T00:11:47;13.10;99.90
7846;DHT22;3968;51.424;6.788;2022-10-14T00:14:16;13.10;99.90
7846;DHT22;3968;51.424;6.788;2022-10-14T00:16:43;13.10;99.90
7846;DHT22;3968;51.424;6.788;2022-10-14T00:19:10;13.10;99.90
7846;DHT22;3968;51.424;6.788;2022-10-14T00:21:37;13.10;99.90
7846;DHT22;3968;51.424;6.788;2022-10-14T00:24:04;13.10;99.90
7846;DHT22;3968;51.424;6.788;2022-10-14T00:26:32;13.10;99.90
7846;DHT22;3968;51.424;6.788;2022-10-14T00:28:59;13.10;99.90
7846;DHT22;3968;51.424;6.788;2022-10-14T00:31:26;13.10;99.90
7846;DHT22;3968;51.424;6.788;2022-10-14T00:33:52;13.10;99.90
7846;DHT22;3968;51.424;6.788;2022-10-14T00:36:19;13.10;99.90
7846;DHT22;3968;51.424;6.788;2022-10-14T00:38:45;13.10;99.90
7846;DHT22;3968;51.424;6.788;2022-10-14T00:41:13;13.10;99.90
7846;DHT22;3968;51.424;6.788;2022-10-14T00:44:02;13.10;99.90
7846;DHT22;3968;51.424;6.788;2022-10-14T00:46:34;13.10;99.90
7846;DHT22;3968;51.424;6.788;2022-10-14T00:49:30;13.10;99.90
7846;DHT22;3968;51.424;6.788;2022-10-14T00:52:01;13.10;99.90
7846;DHT22;3968;51.424;6.788;2022-10-14T00:54:32;13.10;99.90
7846;DHT22;3968;51.424;6.788;2022-10-14T00:57:00;13.20;99.90
7846;DHT22;3968;51.424;6.788;2022-10-14T00:59:26;13.10;99.90
7846;DHT22;3968;51.424;6.788;2022-10-14T01:01:52;13.10;99.90
7846;DHT22;3968;51.424;6.788;2022-10-14T01:04:18;13.20;99.90
7846;DHT22;3968;51.424;6.788;2022-10-14T01:10:02;13.10;99.90
7846;DHT22;3968;51.424;6.788;2022-10-14T01:15:58;13.20;99.90
7846;DHT22;3968;51.424;6.788;2022-10-14T01:21:44;13.10;99.90
7846;DHT22;3968;51.424;6.788;2022-10-14T01:24:41;13.20;99.90
7846;DHT22;3968;51.424;6.788;2022-10-14T01:35:46;13.10;99.90
7846;DHT22;3968;51.424;6.788;2022-10-14T01:43:31;13.20;99.90
7846;DHT22;3968;51.424;6.788;2022-10-14T01:45:59;13.20;99.90
7846;DHT22;3968;51.424;6.788;2022-10-14T01:48:30;13.20;99.90
7846;DHT22;3968;51.424;6.788;2022-10-14T01:51:00;13.10;99.90
7846;DHT22;3968;51.424;6.788;2022-10-14T01:53:37;13.10;99.90
7846;DHT22;3968;51.424;6.788;2022-10-14T01:56:03;13.10;99.90
7846;DHT22;3968;51.424;6.788;2022-10-14T01:58:30;13.20;99.90
7846;DHT22;3968;51.424;6.788;2022-10-14T02:00:57;13.20;99.90
7846;DHT22;3968;51.424;6.788;2022-10-14T02:03:22;13.30;99.90
7846;DHT22;3968;51.424;6.788;2022-10-14T02:06:01;13.20;99.90
7846;DHT22;3968;51.424;6.788;2022-10-14T02:08:44;13.20;99.90
7846;DHT22;3968;51.424;6.788;2022-10-14T02:11:15;13.20;99.90
7846;DHT22;3968;51.424;6.788;2022-10-14T02:16:24;13.10;99.90
7846;DHT22;3968;51.424;6.788;2022-10-14T02:19:09;13.10;99.90
7846;DHT22;3968;51.424;6.788;2022-10-14T02:21:42;13.20;99.90
7846;DHT22;3968;51.424;6.788;2022-10-14T02:24:28;13.20;99.90
7846;DHT22;3968;51.424;6.788;2022-10-14T02:26:57;13.10;99.90
7846;DHT22;3968;51.424;6.788;2022-10-14T02:29:26;13.20;99.90
7846;DHT22;3968;51.424;6.788;2022-10-14T02:31:53;13.10;99.90
7846;DHT22;3968;51.424;6.788;2022-10-14T02:34:20;13.20;99.90
7846;DHT22;3968;51.424;6.788;2022-10-14T02:36:47;13.20;99.90
7846;DHT22;3968;51.424;6.788;2022-10-14T02:39:19;13.20;99.90
7846;DHT22;3968;51.424;6.788;2022-10-14T02:41:45;13.20;99.90
7846;DHT22;3968;51.424;6.788;2022-10-14T02:44:11;13.20;99.90
7846;DHT22;3968;51.424;6.788;2022-10-14T02:46:38;13.20;99.90
7846;DHT22;3968;51.424;6.788;2022-10-14T02:49:05;13.20;99.90
7846;DHT22;3968;51.424;6.788;2022-10-14T02:51:30;13.20;99.90
7846;DHT22;3968;51.424;6.788;2022-10-14T02:53:56;13.10;99.90
7846;DHT22;3968;51.424;6.788;2022-10-14T02:56:22;13.10;99.90
7846;DHT22;3968;51.424;6.788;2022-10-14T02:58:48;13.10;99.90
7846;DHT22;3968;51.424;6.788;2022-10-14T03:01:14;13.10;99.90
7846;DHT22;3968;51.424;6.788;2022-10-14T03:03:39;13.10;99.90
7846;DHT22;3968;51.424;6.788;2022-10-14T03:06:05;13.20;99.90
7846;DHT22;3968;51.424;6.788;2022-10-14T03:08:31;13.20;99.90
7846;DHT22;3968;51.424;6.788;2022-10-14T03:10:57;13.20;99.90
7846;DHT22;3968;51.424;6.788;2022-10-14T03:13:22;13.20;99.90
7846;DHT22;3968;51.424;6.788;2022-10-14T03:15:48;13.30;99.90
7846;DHT22;3968;51.424;6.788;2022-10-14T03:18:17;13.20;99.90
7846;DHT22;3968;51.424;6.788;2022-10-14T03:20:43;13.20;99.90
7846;DHT22;3968;51.424;6.788;2022-10-14T03:23:10;13.20;99.90
7846;DHT22;3968;51.424;6.788;2022-10-14T03:25:36;13.20;99.90
7846;DHT22;3968;51.424;6.788;2022-10-14T03:28:02;13.20;99.90
7846;DHT22;3968;51.424;6.788;2022-10-14T03:30:28;13.20;99.90
7846;DHT22;3968;51.424;6.788;2022-10-14T03:32:54;13.20;99.90
7846;DHT22;3968;51.424;6.788;2022-10-14T03:35:20;13.20;99.90
7846;DHT22;3968;51.424;6.788;2022-10-14T03:37:46;13.20;99.90
7846;DHT22;3968;51.424;6.788;2022-10-14T03:40:12;13.20;99.90
7846;DHT22;3968;51.424;6.788;2022-10-14T03:42:37;13.20;99.90
7846;DHT22;3968;51.424;6.788;2022-10-14T03:45:03;13.10;99.90
7846;DHT22;3968;51.424;6.788;2022-10-14T03:47:29;13.10;99.90
7846;DHT22;3968;51.424;6.788;2022-10-14T03:49:55;13.10;99.90
7846;DHT22;3968;51.424;6.788;2022-10-14T03:52:21;13.10;99.90
7846;DHT22;3968;51.424;6.788;2022-10-14T03:54:46;13.10;99.90
7846;DHT22;3968;51.424;6.788;2022-10-14T03:57:12;13.10;99.90
7846;DHT22;3968;51.424;6.788;2022-10-14T03:59:38;13.10;99.90
7846;DHT22;3968;51.424;6.788;2022-10-14T04:02:03;13.10;99.90
7846;DHT22;3968;51.424;6.788;2022-10-14T04:04:29;13.10;99.90
7846;DHT22;3968;51.424;6.788;2022-10-14T04:06:54;13.10;99.90
7846;DHT22;3968;51.424;6.788;2022-10-14T04:09:20;13.10;99.90
7846;DHT22;3968;51.424;6.788;2022-10-14T04:11:49;13.10;99.90
7846;DHT22;3968;51.424;6.788;2022-10-14T04:14:15;13.10;99.90
7846;DHT22;3968;51.424;6.788;2022-10-14T04:16:40;13.10;99.90
7846;DHT22;3968;51.424;6.788;2022-10-14T04:19:06;13.10;99.90
7846;DHT22;3968;51.424;6.788;2022-10-14T04:21:31;13.20;99.90
7846;DHT22;3968;51.424;6.788;2022-10-14T04:24:00;13.10;99.90
7846;DHT22;3968;51.424;6.788;2022-10-14T04:26:26;13.10;99.90
7846;DHT22;3968;51.424;6.788;2022-10-14T04:28:52;13.10;99.90
7846;DHT22;3968;51.424;6.788;2022-10-14T04:31:17;13.10;99.90
7846;DHT22;3968;51.424;6.788;2022-10-14T04:33:43;13.10;99.90
7846;DHT22;3968;51.424;6.788;2022-10-14T04:36:09;13.10;99.90
7846;DHT22;3968;51.424;6.788;2022-10-14T04:38:34;13.10;99.90
7846;DHT22;3968;51.424;6.788;2022-10-14T04:41:00;13.10;99.90
7846;DHT22;3968;51.424;6.788;2022-10-14T04:43:26;13.10;99.90
7846;DHT22;3968;51.424;6.788;2022-10-14T04:45:51;13.10;99.90
7846;DHT22;3968;51.424;6.788;2022-10-14T04:48:17;13.10;99.90
7846;DHT22;3968;51.424;6.788;2022-10-14T04:50:43;13.10;99.90
7846;DHT22;3968;51.424;6.788;2022-10-14T04:53:09;13.10;99.90
7846;DHT22;3968;51.424;6.788;2022-10-14T04:55:34;13.10;99.90
7846;DHT22;3968;51.424;6.788;2022-10-14T04:58:01;13.10;99.90
7846;DHT22;3968;51.424;6.788;2022-10-14T05:00:26;13.10;99.90
7846;DHT22;3968;51.424;6.788;2022-10-14T05:02:52;13.10;99.90
7846;DHT22;3968;51.424;6.788;2022-10-14T05:05:18;13.10;99.90
7846;DHT22;3968;51.424;6.788;2022-10-14T05:07:43;13.10;99.90
7846;DHT22;3968;51.424;6.788;2022-10-14T05:10:09;13.10;99.90
7846;DHT22;3968;51.424;6.788;2022-10-14T05:12:36;13.10;99.90
7846;DHT22;3968;51.424;6.788;2022-10-14T05:15:03;13.10;99.90
7846;DHT22;3968;51.424;6.788;2022-10-14T05:17:30;13.10;99.90
7846;DHT22;3968;51.424;6.788;2022-10-14T05:19:56;13.10;99.90
7846;DHT22;3968;51.424;6.788;2022-10-14T05:22:22;13.10;99.90
7846;DHT22;3968;51.424;6.788;2022-10-14T05:24:48;13.10;99.90
7846;DHT22;3968;51.424;6.788;2022-10-14T05:27:13;13.10;99.90
7846;DHT22;3968;51.424;6.788;2022-10-14T05:29:39;13.10;99.90
7846;DHT22;3968;51.424;6.788;2022-10-14T05:32:04;13.10;99.90
7846;DHT22;3968;51.424;6.788;2022-10-14T05:34:30;13.10;99.90
7846;DHT22;3968;51.424;6.788;2022-10-14T05:36:56;13.10;99.90
7846;DHT22;3968;51.424;6.788;2022-10-14T05:39:21;13.20;99.90
7846;DHT22;3968;51.424;6.788;2022-10-14T05:41:47;13.20;99.90
7846;DHT22;3968;51.424;6.788;2022-10-14T05:44:12;13.20;99.90
7846;DHT22;3968;51.424;6.788;2022-10-14T05:46:38;13.20;99.90
7846;DHT22;3968;51.424;6.788;2022-10-14T05:49:04;13.20;99.90
7846;DHT22;3968;51.424;6.788;2022-10-14T05:51:33;13.20;99.90
7846;DHT22;3968;51.424;6.788;2022-10-14T05:53:59;13.20;99.90
7846;DHT22;3968;51.424;6.788;2022-10-14T05:56:25;13.20;99.90
7846;DHT22;3968;51.424;6.788;2022-10-14T05:58:50;13.20;99.90
7846;DHT22;3968;51.424;6.788;2022-10-14T06:01:16;13.30;99.90
7846;DHT22;3968;51.424;6.788;2022-10-14T06:03:42;13.20;99.90
7846;DHT22;3968;51.424;6.788;2022-10-14T06:06:12;13.20;99.90
7846;DHT22;3968;51.424;6.788;2022-10-14T06:08:38;13.30;99.90
7846;DHT22;3968;51.424;6.788;2022-10-14T06:11:05;13.20;99.90
7846;DHT22;3968;51.424;6.788;2022-10-14T06:13:31;13.20;99.90
7846;DHT22;3968;51.424;6.788;2022-10-14T06:16:02;13.20;99.90
7846;DHT22;3968;51.424;6.788;2022-10-14T06:18:28;13.30;99.90
7846;DHT22;3968;51.424;6.788;2022-10-14T06:20:53;13.30;99.90
7846;DHT22;3968;51.424;6.788;2022-10-14T06:23:19;13.30;99.90
7846;DHT22;3968;51.424;6.788;2022-10-14T06:25:45;13.30;99.90
7846;DHT22;3968;51.424;6.788;2022-10-14T06:28:11;13.30;99.90
7846;DHT22;3968;51.424;6.788;2022-10-14T06:30:36;13.40;99.90
7846;DHT22;3968;51.424;6.788;2022-10-14T06:33:02;13.40;99.90
7846;DHT22;3968;51.424;6.788;2022-10-14T06:35:28;13.30;99.90
7846;DHT22;3968;51.424;6.788;2022-10-14T06:37:53;13.40;99.90
7846;DHT22;3968;51.424;6.788;2022-10-14T06:40:19;13.40;99.90
7846;DHT22;3968;51.424;6.788;2022-10-14T06:42:45;13.40;99.90
7846;DHT22;3968;51.424;6.788;2022-10-14T06:45:11;13.50;99.90
7846;DHT22;3968;51.424;6.788;2022-10-14T06:47:36;13.40;99.90
7846;DHT22;3968;51.424;6.788;2022-10-14T06:50:02;13.50;99.90
7846;DHT22;3968;51.424;6.788;2022-10-14T06:52:28;13.50;99.90
7846;DHT22;3968;51.424;6.788;2022-10-14T06:54:54;13.50;99.90
7846;DHT22;3968;51.424;6.788;2022-10-14T06:57:19;13.50;99.90
7846;DHT22;3968;51.424;6.788;2022-10-14T06:59:45;13.60;99.90
7846;DHT22;3968;51.424;6.788;2022-10-14T07:02:11;13.60;99.90
7846;DHT22;3968;51.424;6.788;2022-10-14T07:04:38;13.60;99.90
7846;DHT22;3968;51.424;6.788;2022-10-14T07:07:05;13.60;99.90
7846;DHT22;3968;51.424;6.788;2022-10-14T07:09:31;13.60;99.90
7846;DHT22;3968;51.424;6.788;2022-10-14T07:11:57;13.60;99.90
7846;DHT22;3968;51.424;6.788;2022-10-14T07:14:22;13.60;99.90
7846;DHT22;3968;51.424;6.788;2022-10-14T07:16:48;13.60;99.90
7846;DHT22;3968;51.424;6.788;2022-10-14T07:19:14;13.60;99.90
7846;DHT22;3968;51.424;6.788;2022-10-14T07:21:39;13.60;99.90
7846;DHT22;3968;51.424;6.788;2022-10-14T07:24:07;13.60;99.90
7846;DHT22;3968;51.424;6.788;2022-10-14T07:26:33;13.60;99.90
7846;DHT22;3968;51.424;6.788;2022-10-14T07:28:59;13.60;99.90
7846;DHT22;3968;51.424;6.788;2022-10-14T07:31:25;13.60;99.90
7846;DHT22;3968;51.424;6.788;2022-10-14T07:33:50;13.60;99.90
7846;DHT22;3968;51.424;6.788;2022-10-14T07:36:17;13.60;99.90
7846;DHT22;3968;51.424;6.788;2022-10-14T07:38:44;13.60;99.90
7846;DHT22;3968;51.424;6.788;2022-10-14T07:41:12;13.70;99.90
7846;DHT22;3968;51.424;6.788;2022-10-14T07:43:47;13.70;99.90
7846;DHT22;3968;51.424;6.788;2022-10-14T07:46:14;13.70;99.90
7846;DHT22;3968;51.424;6.788;2022-10-14T07:48:40;13.70;99.90
7846;DHT22;3968;51.424;6.788;2022-10-14T07:51:07;13.80;99.90
7846;DHT22;3968;51.424;6.788;2022-10-14T07:53:35;13.70;99.90
7846;DHT22;3968;51.424;6.788;2022-10-14T07:56:01;13.80;99.90
7846;DHT22;3968;51.424;6.788;2022-10-14T07:58:29;13.80;99.90
7846;DHT22;3968;51.424;6.788;2022-10-14T08:00:56;13.80;99.90
7846;DHT22;3968;51.424;6.788;2022-10-14T08:03:23;13.80;99.90
7846;DHT22;3968;51.424;6.788;2022-10-14T08:05:49;13.90;99.90
7846;DHT22;3968;51.424;6.788;2022-10-14T08:08:16;13.80;99.90
7846;DHT22;3968;51.424;6.788;2022-10-14T08:10:43;13.90;99.90
7846;DHT22;3968;51.424;6.788;2022-10-14T08:13:09;13.90;99.90
7846;DHT22;3968;51.424;6.788;2022-10-14T08:15:36;13.90;99.90
7846;DHT22;3968;51.424;6.788;2022-10-14T08:18:04;14.00;99.90
7846;DHT22;3968;51.424;6.788;2022-10-14T08:20:30;14.00;99.90
7846;DHT22;3968;51.424;6.788;2022-10-14T08:22:57;14.10;99.90
7846;DHT22;3968;51.424;6.788;2022-10-14T08:25:22;14.10;99.90
7846;DHT22;3968;51.424;6.788;2022-10-14T08:27:49;14.20;99.90
7846;DHT22;3968;51.424;6.788;2022-10-14T08:30:16;14.20;99.90
7846;DHT22;3968;51.424;6.788;2022-10-14T08:32:41;14.30;99.90
7846;DHT22;3968;51.424;6.788;2022-10-14T08:35:07;14.30;99.90
7846;DHT22;3968;51.424;6.788;2022-10-14T08:37:33;14.40;99.90
7846;DHT22;3968;51.424;6.788;2022-10-14T08:39:59;14.40;99.90
7846;DHT22;3968;51.424;6.788;2022-10-14T08:45:07;14.60;99.90
7846;DHT22;3968;51.424;6.788;2022-10-14T08:47:45;14.60;99.90
7846;DHT22;3968;51.424;6.788;2022-10-14T08:50:29;14.60;99.90
7846;DHT22;3968;51.424;6.788;2022-10-14T08:53:03;14.70;99.90
7846;DHT22;3968;51.424;6.788;2022-10-14T08:55:36;14.60;99.90
7846;DHT22;3968;51.424;6.788;2022-10-14T09:00:42;14.60;99.90
7846;DHT22;3968;51.424;6.788;2022-10-14T09:03:15;14.70;99.90
7846;DHT22;3968;51.424;6.788;2022-10-14T09:05:42;14.80;99.90
7846;DHT22;3968;51.424;6.788;2022-10-14T09:08:13;14.80;99.90
7846;DHT22;3968;51.424;6.788;2022-10-14T09:10:41;14.90;99.90
7846;DHT22;3968;51.424;6.788;2022-10-14T09:13:16;14.90;99.90
7846;DHT22;3968;51.424;6.788;2022-10-14T09:15:46;14.90;99.90
7846;DHT22;3968;51.424;6.788;2022-10-14T09:18:33;14.90;99.90
7846;DHT22;3968;51.424;6.788;2022-10-14T09:21:00;14.90;99.90
7846;DHT22;3968;51.424;6.788;2022-10-14T09:23:27;14.90;99.90
7846;DHT22;3968;51.424;6.788;2022-10-14T09:25:56;14.90;99.90
7846;DHT22;3968;51.424;6.788;2022-10-14T09:28:32;14.90;99.90
7846;DHT22;3968;51.424;6.788;2022-10-14T09:31:01;14.90;99.90
7846;DHT22;3968;51.424;6.788;2022-10-14T09:33:27;14.90;99.90
7846;DHT22;3968;51.424;6.788;2022-10-14T09:35:53;15.00;99.90
7846;DHT22;3968;51.424;6.788;2022-10-14T09:38:20;15.10;99.90
7846;DHT22;3968;51.424;6.788;2022-10-14T09:40:47;15.10;99.90
7846;DHT22;3968;51.424;6.788;2022-10-14T09:43:16;15.20;99.90
7846;DHT22;3968;51.424;6.788;2022-10-14T09:48:42;15.30;99.90
7846;DHT22;3968;51.424;6.788;2022-10-14T09:53:56;15.30;99.90
7846;DHT22;3968;51.424;6.788;2022-10-14T09:56:32;15.20;99.90
7846;DHT22;3968;51.424;6.788;2022-10-14T09:59:03;15.20;99.90
7846;DHT22;3968;51.424;6.788;2022-10-14T10:01:38;15.20;99.90
7846;DHT22;3968;51.424;6.788;2022-10-14T10:07:00;15.10;99.90
7846;DHT22;3968;51.424;6.788;2022-10-14T10:09:26;15.10;99.90
7846;DHT22;3968;51.424;6.788;2022-10-14T10:11:52;15.10;99.90
7846;DHT22;3968;51.424;6.788;2022-10-14T10:14:32;15.10;99.90
7846;DHT22;3968;51.424;6.788;2022-10-14T10:19:34;15.20;99.90
7846;DHT22;3968;51.424;6.788;2022-10-14T10:27:51;15.30;99.90
7846;DHT22;3968;51.424;6.788;2022-10-14T10:35:24;15.40;99.90
7846;DHT22;3968;51.424;6.788;2022-10-14T10:51:05;15.40;99.90
7846;DHT22;3968;51.424;6.788;2022-10-14T10:54:15;15.40;99.90
7846;DHT22;3968;51.424;6.788;2022-10-14T10:56:52;15.40;99.90
7846;DHT22;3968;51.424;6.788;2022-10-14T10:59:43;15.50;99.90
7846;DHT22;3968;51.424;6.788;2022-10-14T11:02:36;15.40;99.90
7846;DHT22;3968;51.424;6.788;2022-10-14T11:21:43;15.50;99.90
7846;DHT22;3968;51.424;6.788;2022-10-14T11:38:01;15.10;99.90
7846;DHT22;3968;51.424;6.788;2022-10-14T11:43:44;14.90;99.90
7846;DHT22;3968;51.424;6.788;2022-10-14T11:46:20;14.90;99.90
7846;DHT22;3968;51.424;6.788;2022-10-14T11:49:03;14.90;99.90
7846;DHT22;3968;51.424;6.788;2022-10-14T11:51:33;14.90;99.90
7846;DHT22;3968;51.424;6.788;2022-10-14T11:54:11;15.00;99.90
7846;DHT22;3968;51.424;6.788;2022-10-14T11:56:50;15.10;99.90
7846;DHT22;3968;51.424;6.788;2022-10-14T11:59:28;15.10;99.90
7846;DHT22;3968;51.424;6.788;2022-10-14T12:02:10;15.20;99.90
7846;DHT22;3968;51.424;6.788;2022-10-14T12:04:40;15.30;99.90
7846;DHT22;3968;51.424;6.788;2022-10-14T12:07:12;15.40;99.90
7846;DHT22;3968;51.424;6.788;2022-10-14T12:09:47;15.40;99.90
7846;DHT22;3968;51.424;6.788;2022-10-14T12:12:18;15.40;99.90
7846;DHT22;3968;51.424;6.788;2022-10-14T12:14:48;15.40;99.90
7846;DHT22;3968;51.424;6.788;2022-10-14T12:17:33;15.50;99.90
7846;DHT22;3968;51.424;6.788;2022-10-14T12:23:02;15.60;99.90
7846;DHT22;3968;51.424;6.788;2022-10-14T12:25:36;15.50;99.90
7846;DHT22;3968;51.424;6.788;2022-10-14T12:28:04;15.60;99.90
7846;DHT22;3968;51.424;6.788;2022-10-14T12:30:40;15.60;99.90
7846;DHT22;3968;51.424;6.788;2022-10-14T12:33:11;15.60;99.90
7846;DHT22;3968;51.424;6.788;2022-10-14T12:35:52;15.60;99.90
7846;DHT22;3968;51.424;6.788;2022-10-14T12:38:23;15.60;99.90
7846;DHT22;3968;51.424;6.788;2022-10-14T12:40:49;15.60;99.90
7846;DHT22;3968;51.424;6.788;2022-10-14T12:48:21;15.60;99.90
7846;DHT22;3968;51.424;6.788;2022-10-14T12:50:56;15.60;99.90
7846;DHT22;3968;51.424;6.788;2022-10-14T12:53:25;15.60;99.90
7846;DHT22;3968;51.424;6.788;2022-10-14T12:55:54;15.60;99.90
7846;DHT22;3968;51.424;6.788;2022-10-14T12:58:28;15.60;99.90
7846;DHT22;3968;51.424;6.788;2022-10-14T13:01:00;15.50;99.90
7846;DHT22;3968;51.424;6.788;2022-10-14T13:03:31;15.50;99.90
7846;DHT22;3968;51.424;6.788;2022-10-14T13:06:29;15.60;99.90
7846;DHT22;3968;51.424;6.788;2022-10-14T13:11:40;15.60;99.90
7846;DHT22;3968;51.424;6.788;2022-10-14T13:14:21;15.50;99.90
7846;DHT22;3968;51.424;6.788;2022-10-14T13:19:45;15.50;99.90
7846;DHT22;3968;51.424;6.788;2022-10-14T13:25:09;15.50;99.90
7846;DHT22;3968;51.424;6.788;2022-10-14T13:30:44;15.50;99.90
7846;DHT22;3968;51.424;6.788;2022-10-14T13:33:19;15.50;99.90
7846;DHT22;3968;51.424;6.788;2022-10-14T13:35:56;15.50;99.90
7846;DHT22;3968;51.424;6.788;2022-10-14T13:38:24;15.50;99.90
7846;DHT22;3968;51.424;6.788;2022-10-14T13:40:55;15.50;99.90
7846;DHT22;3968;51.424;6.788;2022-10-14T13:46:14;15.60;99.90
7846;DHT22;3968;51.424;6.788;2022-10-14T13:48:48;15.60;99.90
7846;DHT22;3968;51.424;6.788;2022-10-14T13:53:54;15.50;99.90
7846;DHT22;3968;51.424;6.788;2022-10-14T13:56:25;15.40;99.90
7846;DHT22;3968;51.424;6.788;2022-10-14T13:58:50;15.30;99.90
7846;DHT22;3968;51.424;6.788;2022-10-14T14:01:18;15.30;99.90
7846;DHT22;3968;51.424;6.788;2022-10-14T14:03:52;15.30;99.90
7846;DHT22;3968;51.424;6.788;2022-10-14T14:06:20;15.30;99.90
7846;DHT22;3968;51.424;6.788;2022-10-14T14:11:25;15.30;99.90
7846;DHT22;3968;51.424;6.788;2022-10-14T14:14:04;15.30;99.90
7846;DHT22;3968;51.424;6.788;2022-10-14T14:16:34;15.30;99.90
7846;DHT22;3968;51.424;6.788;2022-10-14T14:19:01;15.30;99.90
7846;DHT22;3968;51.424;6.788;2022-10-14T14:21:27;15.30;99.90
7846;DHT22;3968;51.424;6.788;2022-10-14T14:23:56;15.20;99.90
7846;DHT22;3968;51.424;6.788;2022-10-14T14:26:31;15.20;99.90
7846;DHT22;3968;51.424;6.788;2022-10-14T14:28:58;15.20;99.90
7846;DHT22;3968;51.424;6.788;2022-10-14T14:31:25;15.20;99.90
7846;DHT22;3968;51.424;6.788;2022-10-14T14:33:56;15.20;99.90
7846;DHT22;3968;51.424;6.788;2022-10-14T14:36:26;15.20;99.90
7846;DHT22;3968;51.424;6.788;2022-10-14T14:38:55;15.20;99.90
7846;DHT22;3968;51.424;6.788;2022-10-14T14:41:24;15.20;99.90
7846;DHT22;3968;51.424;6.788;2022-10-14T14:43:51;15.20;99.90
7846;DHT22;3968;51.424;6.788;2022-10-14T14:46:38;15.20;99.90
7846;DHT22;3968;51.424;6.788;2022-10-14T14:49:06;15.20;99.90
7846;DHT22;3968;51.424;6.788;2022-10-14T14:51:34;15.30;99.90
7846;DHT22;3968;51.424;6.788;2022-10-14T14:54:01;15.30;99.90
7846;DHT22;3968;51.424;6.788;2022-10-14T14:56:37;15.30;99.90
7846;DHT22;3968;51.424;6.788;2022-10-14T14:59:42;15.30;99.90
7846;DHT22;3968;51.424;6.788;2022-10-14T15:02:15;15.30;99.90
7846;DHT22;3968;51.424;6.788;2022-10-14T15:04:42;15.30;99.90
7846;DHT22;3968;51.424;6.788;2022-10-14T15:07:17;15.30;99.90
7846;DHT22;3968;51.424;6.788;2022-10-14T15:09:48;15.30;99.90
7846;DHT22;3968;51.424;6.788;2022-10-14T15:12:24;15.30;99.90
7846;DHT22;3968;51.424;6.788;2022-10-14T15:14:55;15.30;99.90
7846;DHT22;3968;51.424;6.788;2022-10-14T15:17:27;15.30;99.90
7846;DHT22;3968;51.424;6.788;2022-10-14T15:19:54;15.30;99.90
7846;DHT22;3968;51.424;6.788;2022-10-14T15:22:23;15.30;99.90
7846;DHT22;3968;51.424;6.788;2022-10-14T15:30:16;15.30;99.90
7846;DHT22;3968;51.424;6.788;2022-10-14T15:32:42;15.30;99.90
7846;DHT22;3968;51.424;6.788;2022-10-14T15:35:15;15.30;99.90
7846;DHT22;3968;51.424;6.788;2022-10-14T15:37:41;15.30;99.90
7846;DHT22;3968;51.424;6.788;2022-10-14T15:40:12;15.40;99.90
7846;DHT22;3968;51.424;6.788;2022-10-14T15:42:39;15.40;99.90
7846;DHT22;3968;51.424;6.788;2022-10-14T15:45:05;15.40;99.90
7846;DHT22;3968;51.424;6.788;2022-10-14T15:47:31;15.40;99.90
7846;DHT22;3968;51.424;6.788;2022-10-14T15:49:57;15.40;99.90
7846;DHT22;3968;51.424;6.788;2022-10-14T15:52:22;15.50;99.90
7846;DHT22;3968;51.424;6.788;2022-10-14T15:54:48;15.40;99.90
7846;DHT22;3968;51.424;6.788;2022-10-14T15:57:15;15.40;99.90
7846;DHT22;3968;51.424;6.788;2022-10-14T15:59:41;15.40;99.90
7846;DHT22;3968;51.424;6.788;2022-10-14T16:02:16;15.40;99.90
7846;DHT22;3968;51.424;6.788;2022-10-14T16:04:43;15.40;99.90
7846;DHT22;3968;51.424;6.788;2022-10-14T16:07:12;15.40;99.90
7846;DHT22;3968;51.424;6.788;2022-10-14T16:09:39;15.40;99.90
7846;DHT22;3968;51.424;6.788;2022-10-14T16:12:07;15.40;99.90
7846;DHT22;3968;51.424;6.788;2022-10-14T16:14:34;15.30;99.90
7846;DHT22;3968;51.424;6.788;2022-10-14T16:17:00;15.40;99.90
7846;DHT22;3968;51.424;6.788;2022-10-14T16:19:27;15.30;99.90
7846;DHT22;3968;51.424;6.788;2022-10-14T16:21:53;15.30;99.90
7846;DHT22;3968;51.424;6.788;2022-10-14T16:24:20;15.30;99.90
7846;DHT22;3968;51.424;6.788;2022-10-14T16:26:47;15.30;99.90
7846;DHT22;3968;51.424;6.788;2022-10-14T16:29:16;15.30;99.90
7846;DHT22;3968;51.424;6.788;2022-10-14T16:31:48;15.30;99.90
7846;DHT22;3968;51.424;6.788;2022-10-14T16:34:17;15.30;99.90
7846;DHT22;3968;51.424;6.788;2022-10-14T16:36:44;15.30;99.90
7846;DHT22;3968;51.424;6.788;2022-10-14T16:39:11;15.30;99.90
7846;DHT22;3968;51.424;6.788;2022-10-14T16:41:37;15.30;99.90
7846;DHT22;3968;51.424;6.788;2022-10-14T16:44:04;15.30;99.90
7846;DHT22;3968;51.424;6.788;2022-10-14T16:46:29;15.30;99.90
7846;DHT22;3968;51.424;6.788;2022-10-14T16:49:13;15.30;99.90
7846;DHT22;3968;51.424;6.788;2022-10-14T16:51:41;15.30;99.90
7846;DHT22;3968;51.424;6.788;2022-10-14T16:54:07;15.30;99.90
7846;DHT22;3968;51.424;6.788;2022-10-14T16:56:32;15.30;99.90
7846;DHT22;3968;51.424;6.788;2022-10-14T16:59:17;15.30;99.90
7846;DHT22;3968;51.424;6.788;2022-10-14T17:01:43;15.40;99.90
7846;DHT22;3968;51.424;6.788;2022-10-14T17:04:09;15.30;99.90
7846;DHT22;3968;51.424;6.788;2022-10-14T17:06:35;15.40;99.90
7846;DHT22;3968;51.424;6.788;2022-10-14T17:09:02;15.40;99.90
7846;DHT22;3968;51.424;6.788;2022-10-14T17:11:27;15.40;99.90
7846;DHT22;3968;51.424;6.788;2022-10-14T17:13:54;15.40;99.90
7846;DHT22;3968;51.424;6.788;2022-10-14T17:16:20;15.40;99.90
7846;DHT22;3968;51.424;6.788;2022-10-14T17:18:47;15.40;99.90
7846;DHT22;3968;51.424;6.788;2022-10-14T17:21:13;15.40;99.90
7846;DHT22;3968;51.424;6.788;2022-10-14T17:23:40;15.40;99.90
7846;DHT22;3968;51.424;6.788;2022-10-14T17:26:07;15.40;99.90
7846;DHT22;3968;51.424;6.788;2022-10-14T17:28:33;15.30;99.90
7846;DHT22;3968;51.424;6.788;2022-10-14T17:30:59;15.30;99.90
7846;DHT22;3968;51.424;6.788;2022-10-14T17:33:28;15.30;99.90
7846;DHT22;3968;51.424;6.788;2022-10-14T17:35:55;15.30;99.90
7846;DHT22;3968;51.424;6.788;2022-10-14T17:38:22;15.30;99.90
7846;DHT22;3968;51.424;6.788;2022-10-14T17:40:48;15.30;99.90
7846;DHT22;3968;51.424;6.788;2022-10-14T17:43:13;15.20;99.90
7846;DHT22;3968;51.424;6.788;2022-10-14T17:45:39;15.20;99.90
7846;DHT22;3968;51.424;6.788;2022-10-14T17:48:05;15.30;99.90
7846;DHT22;3968;51.424;6.788;2022-10-14T17:50:34;15.30;99.90
7846;DHT22;3968;51.424;6.788;2022-10-14T17:53:00;15.20;99.90
7846;DHT22;3968;51.424;6.788;2022-10-14T17:55:27;15.20;99.90
7846;DHT22;3968;51.424;6.788;2022-10-14T17:57:53;15.10;99.90
7846;DHT22;3968;51.424;6.788;2022-10-14T18:00:18;15.10;99.90
7846;DHT22;3968;51.424;6.788;2022-10-14T18:02:45;15.10;99.90
7846;DHT22;3968;51.424;6.788;2022-10-14T18:05:11;15.00;99.90
7846;DHT22;3968;51.424;6.788;2022-10-14T18:07:38;15.00;99.90
7846;DHT22;3968;51.424;6.788;2022-10-14T18:10:04;15.00;99.90
7846;DHT22;3968;51.424;6.788;2022-10-14T18:12:30;14.90;99.90
7846;DHT22;3968;51.424;6.788;2022-10-14T18:14:56;14.80;99.90
7846;DHT22;3968;51.424;6.788;2022-10-14T18:17:21;14.90;99.90
7846;DHT22;3968;51.424;6.788;2022-10-14T18:19:47;14.90;99.90
7846;DHT22;3968;51.424;6.788;2022-10-14T18:22:14;14.90;99.90
7846;DHT22;3968;51.424;6.788;2022-10-14T18:24:40;14.90;99.90
7846;DHT22;3968;51.424;6.788;2022-10-14T18:27:08;14.90;99.90